Time;durP1;ratioP1;P1;durP2;ratioP2;P2;SDS_P1;SDS_P2;PMS_P1;PMS_P2;Temp;Humidity;BMP_temperature;BMP_pressure;BME280_temperature;BME280_humidity;BME280_pressure;Samples;Min_cycle;Max_cycle;Signal;HPM_P1;HPM_P2
2023/12/04 00:01:09;;;;;;;42.08;21.50;;;;;;;0.07;81.01;99062.69;5067697;28;20119;-82
2023/12/04 00:03:34;;;;;;;45.10;22.13;;;;;;;0.00;80.28;99075.69;5070791;28;20485;-82
2023/12/04 00:05:59;;;;;;;39.92;20.65;;;;;;;0.11;81.15;99048.22;5065535;28;20081;-83
2023/12/04 00:08:25;;;;;;;42.22;21.63;;;;;;;0.16;81.22;99057.19;5049586;28;20036;-83
2023/12/04 00:10:51;;;;;;;43.15;22.88;;;;;;;-0.03;80.20;99061.13;5064432;28;20032;-81
2023/12/04 00:13:17;;;;;;;43.85;22.20;;;;;;;-0.36;80.17;99059.72;5051973;28;20552;-82
2023/12/04 00:15:43;;;;;;;42.67;21.42;;;;;;;-0.58;80.29;99043.94;5066371;28;20037;-81
2023/12/04 00:18:09;;;;;;;40.22;22.27;;;;;;;-0.15;81.73;99043.31;5063768;28;20105;-81
2023/12/04 00:20:34;;;;;;;43.67;22.33;;;;;;;-0.13;80.93;99036.09;5081310;28;20021;-82
2023/12/04 00:22:59;;;;;;;44.90;21.38;;;;;;;-0.12;81.44;99035.13;5051876;28;20036;-82
2023/12/04 00:25:25;;;;;;;45.03;22.00;;;;;;;-0.09;81.07;99011.97;5064665;28;20032;-81
2023/12/04 00:27:50;;;;;;;45.03;20.83;;;;;;;-0.16;81.23;99025.97;5066878;28;20062;-82
2023/12/04 00:30:16;;;;;;;43.80;22.40;;;;;;;-0.10;81.77;99018.22;5065870;28;20632;-82
2023/12/04 00:32:41;;;;;;;44.25;23.40;;;;;;;-0.61;79.73;99008.41;5067215;28;20043;-82
2023/12/04 00:35:07;;;;;;;36.47;20.75;;;;;;;-0.49;81.27;99000.97;5049127;28;20044;-81
2023/12/04 00:37:37;;;;;;;52.47;25.88;;;;;;;-0.44;81.39;99009.16;5045377;28;20041;-82
2023/12/04 00:40:02;;;;;;;41.53;21.73;;;;;;;-0.16;82.42;99003.19;5067637;28;20035;-82
2023/12/04 00:42:28;;;;;;;48.45;24.02;;;;;;;-0.21;82.21;98995.03;5065832;28;20028;-82
2023/12/04 00:44:53;;;;;;;45.50;23.90;;;;;;;-0.71;80.05;98981.63;5068566;28;20029;-83
2023/12/04 00:47:18;;;;;;;42.72;21.45;;;;;;;-0.44;82.02;98991.63;5049218;28;20035;-82
2023/12/04 00:49:44;;;;;;;42.28;23.50;;;;;;;-0.43;80.69;98972.25;5066465;28;20423;-82
2023/12/04 00:52:09;;;;;;;40.50;21.83;;;;;;;-0.30;82.24;98955.94;5048783;28;20612;-82
2023/12/04 00:54:34;;;;;;;45.00;22.17;;;;;;;-0.44;81.71;98960.16;5064493;28;20036;-82
2023/12/04 00:57:00;;;;;;;43.70;23.17;;;;;;;-0.52;81.72;98962.00;5067834;28;20511;-82
2023/12/04 00:59:25;;;;;;;42.58;22.48;;;;;;;-0.41;81.51;98953.72;5050705;28;20435;-82
2023/12/04 01:01:50;;;;;;;35.95;19.30;;;;;;;-0.11;81.77;98951.00;5045282;28;20445;-83
2023/12/04 01:04:16;;;;;;;45.13;22.50;;;;;;;-0.31;79.91;98964.81;5058948;28;20151;-82
2023/12/04 01:06:41;;;;;;;40.63;20.35;;;;;;;-0.50;82.00;98949.56;5059493;28;21259;-82
2023/12/04 01:09:07;;;;;;;45.97;20.98;;;;;;;-0.07;82.24;98962.75;5060247;28;20131;-82
2023/12/04 01:11:32;;;;;;;42.42;20.92;;;;;;;-0.83;81.37;98939.28;5062948;28;20029;-83
2023/12/04 01:13:57;;;;;;;41.70;20.70;;;;;;;-0.88;79.82;98952.09;5048838;28;20033;-83
2023/12/04 01:16:22;;;;;;;40.63;20.23;;;;;;;-0.54;82.30;98940.38;5060732;28;20099;-81
2023/12/04 01:18:48;;;;;;;40.85;22.10;;;;;;;-0.42;81.73;98937.19;5047088;28;20115;-83
2023/12/04 01:21:14;;;;;;;40.83;20.80;;;;;;;-0.20;82.61;98935.53;5044737;28;20036;-83
2023/12/04 01:23:39;;;;;;;46.28;20.63;;;;;;;-0.41;81.32;98933.56;5063745;28;20033;-83
2023/12/04 01:26:05;;;;;;;42.17;21.23;;;;;;;-0.53;81.88;98934.16;5062695;28;20029;-82
2023/12/04 01:28:30;;;;;;;41.50;20.92;;;;;;;-0.32;81.91;98919.41;5051616;28;20036;-83
2023/12/04 01:30:56;;;;;;;39.80;21.10;;;;;;;-0.19;80.94;98935.34;5051117;28;20032;-83
2023/12/04 01:33:21;;;;;;;42.60;21.58;;;;;;;-0.42;82.00;98928.50;5067283;28;20047;-82
2023/12/04 01:35:47;;;;;;;41.67;20.80;;;;;;;0.07;81.65;98932.31;5029303;28;20111;-82
2023/12/04 01:38:12;;;;;;;40.40;20.02;;;;;;;0.04;81.79;98927.44;5050497;28;20025;-82
2023/12/04 01:40:38;;;;;;;40.53;21.48;;;;;;;-0.37;79.74;98932.22;5051764;28;20024;-82
2023/12/04 01:43:03;;;;;;;39.55;19.88;;;;;;;-0.09;82.18;98917.53;5034146;28;20035;-83
2023/12/04 01:45:28;;;;;;;39.58;19.80;;;;;;;-0.84;79.73;98911.47;5043821;28;20033;-83
2023/12/04 01:47:54;;;;;;;36.60;19.85;;;;;;;-0.02;81.94;98921.06;5047529;28;20040;-82
2023/12/04 01:50:20;;;;;;;46.00;23.30;;;;;;;-0.28;82.17;98902.31;5038521;28;20106;-82
2023/12/04 01:52:46;;;;;;;39.47;21.40;;;;;;;-0.51;80.45;98904.19;5060734;28;20036;-82
2023/12/04 01:55:12;;;;;;;36.58;20.48;;;;;;;-0.06;81.47;98896.19;5062727;28;20052;-83
2023/12/04 01:57:38;;;;;;;44.22;22.45;;;;;;;-0.69;79.54;98906.28;5064890;28;20641;-82
2023/12/04 02:00:06;;;;;;;39.95;20.02;;;;;;;-0.01;82.42;98893.88;5048042;28;20052;-83
2023/12/04 02:02:31;;;;;;;41.47;20.33;;;;;;;0.08;81.97;98885.91;5055838;28;20036;-83
2023/12/04 02:04:59;;;;;;;34.47;19.42;;;;;;;-0.50;81.49;98879.56;5049392;28;20024;-83
2023/12/04 02:07:25;;;;;;;43.63;20.80;;;;;;;-0.26;81.72;98896.88;5064666;28;20029;-82
2023/12/04 02:09:50;;;;;;;41.13;19.45;;;;;;;0.10;82.17;98894.41;5066769;28;20036;-82
2023/12/04 02:12:16;;;;;;;40.80;19.58;;;;;;;0.27;81.24;98894.03;5063011;28;20885;-82
2023/12/04 02:14:43;;;;;;;34.67;19.92;;;;;;;0.21;81.32;98897.41;5067690;28;20032;-82
2023/12/04 02:17:08;;;;;;;37.55;18.83;;;;;;;-0.10;80.10;98894.13;5043491;28;20036;-83
2023/12/04 02:19:34;;;;;;;36.53;19.13;;;;;;;-0.18;81.00;98887.16;5064237;28;20025;-82
2023/12/04 02:21:59;;;;;;;41.45;20.50;;;;;;;-0.09;81.76;98878.19;5066246;28;20074;-82
2023/12/04 02:24:25;;;;;;;35.20;18.52;;;;;;;0.25;81.51;98892.59;5079239;28;20081;-83
2023/12/04 02:26:57;;;;;;;36.95;20.33;;;;;;;-0.10;80.72;98894.13;5068562;28;20645;-85
2023/12/04 02:29:45;;;;;;;33.10;18.38;;;;;;;-0.12;80.57;98883.00;5082118;28;20142;-86
2023/12/04 02:32:15;;;;;;;38.35;17.63;;;;;;;-0.80;78.64;98885.72;5064991;28;20029;-85
2023/12/04 02:34:43;;;;;;;34.35;17.88;;;;;;;-0.57;82.41;98865.56;5061476;28;20035;-85
2023/12/04 02:37:11;;;;;;;36.60;18.08;;;;;;;-0.31;81.75;98867.78;5068725;28;20074;-86
2023/12/04 02:39:37;;;;;;;33.53;16.73;;;;;;;-0.29;81.25;98871.84;5045936;28;20484;-85
2023/12/04 02:42:03;;;;;;;33.13;17.70;;;;;;;-0.58;80.94;98857.88;5062809;28;20047;-85
2023/12/04 02:44:28;;;;;;;34.47;17.92;;;;;;;-0.66;81.50;98853.53;5057361;28;20128;-85
2023/12/04 02:46:53;;;;;;;34.60;18.48;;;;;;;-0.43;82.28;98856.91;5050585;28;20103;-85
2023/12/04 02:49:19;;;;;;;38.05;19.55;;;;;;;-0.59;80.09;98861.50;5036126;28;20028;-85
2023/12/04 02:51:44;;;;;;;35.80;19.40;;;;;;;-0.16;81.65;98835.34;5031827;28;20141;-86
2023/12/04 02:54:09;;;;;;;35.95;18.52;;;;;;;-0.67;80.82;98835.34;5034594;28;20380;-85
2023/12/04 02:56:35;;;;;;;36.40;19.27;;;;;;;-0.17;82.09;98840.75;5050250;28;20392;-85
2023/12/04 02:59:00;;;;;;;34.60;18.52;;;;;;;-0.21;81.52;98848.16;5061158;28;20087;-85
2023/12/04 03:01:25;;;;;;;36.10;18.02;;;;;;;-0.27;81.91;98834.97;5044878;28;20024;-86
2023/12/04 03:03:51;;;;;;;31.85;17.00;;;;;;;-0.28;80.96;98841.19;5032464;28;20472;-86
2023/12/04 03:06:16;;;;;;;35.85;19.08;;;;;;;-0.34;81.60;98827.00;5029444;28;20040;-85
2023/12/04 03:08:42;;;;;;;32.70;18.15;;;;;;;-1.04;78.43;98841.38;5050219;28;20111;-85
2023/12/04 03:11:07;;;;;;;32.15;19.42;;;;;;;-0.62;81.98;98814.66;5063383;28;20028;-85
2023/12/04 03:13:34;;;;;;;34.53;18.65;;;;;;;-0.36;82.04;98833.41;5047851;28;20083;-84
2023/12/04 03:15:59;;;;;;;35.28;16.75;;;;;;;-0.22;81.97;98819.50;5065408;28;20028;-85
2023/12/04 03:18:25;;;;;;;30.83;16.52;;;;;;;-0.44;81.76;98815.16;5051170;28;20028;-85
2023/12/04 03:20:51;;;;;;;35.65;18.52;;;;;;;-0.35;81.60;98820.13;5032680;28;20092;-85
2023/12/04 03:23:16;;;;;;;33.45;17.20;;;;;;;-0.33;82.10;98818.13;5034237;28;20645;-85
2023/12/04 03:25:42;;;;;;;35.55;19.73;;;;;;;-0.39;80.43;98824.09;5050256;28;20031;-86
2023/12/04 03:28:08;;;;;;;33.40;18.52;;;;;;;-0.43;81.29;98820.22;5047450;28;20477;-86
2023/12/04 03:30:33;;;;;;;32.60;18.38;;;;;;;-0.80;81.50;98796.66;5067572;28;20369;-86
2023/12/04 03:32:58;;;;;;;32.53;17.77;;;;;;;-0.37;81.56;98801.13;5060134;28;20453;-86
2023/12/04 03:35:24;;;;;;;38.25;18.27;;;;;;;-0.65;80.65;98794.03;5048293;28;20029;-86
2023/12/04 03:37:49;;;;;;;37.13;18.27;;;;;;;-0.23;82.09;98802.13;5069864;28;20412;-86
2023/12/04 03:40:15;;;;;;;37.92;21.23;;;;;;;-0.28;81.32;98796.63;5070473;28;20028;-85
2023/12/04 03:42:41;;;;;;;35.70;18.45;;;;;;;-0.56;80.88;98788.56;5048229;28;20090;-85
2023/12/04 03:45:07;;;;;;;32.95;17.77;;;;;;;-0.67;80.36;98796.84;5032365;28;20040;-85
2023/12/04 03:47:32;;;;;;;34.50;16.58;;;;;;;-0.51;82.08;98785.41;5067503;28;20045;-86
2023/12/04 03:49:57;;;;;;;35.67;19.50;;;;;;;-0.32;82.22;98796.16;5066418;28;20067;-85
2023/12/04 03:52:23;;;;;;;33.03;18.55;;;;;;;-0.45;82.38;98769.78;5030535;28;20055;-85
2023/12/04 03:54:48;;;;;;;37.17;20.02;;;;;;;-0.83;80.63;98763.75;5035319;28;20044;-85
2023/12/04 03:57:14;;;;;;;35.28;17.77;;;;;;;-0.52;81.26;98775.91;5048431;28;20388;-85
2023/12/04 03:59:39;;;;;;;39.03;18.33;;;;;;;-0.12;81.72;98771.03;5036608;28;20025;-85
2023/12/04 04:02:04;;;;;;;30.77;17.20;;;;;;;0.13;81.51;98771.53;5052284;28;20402;-85
2023/12/04 04:04:30;;;;;;;37.42;18.27;;;;;;;-0.47;81.07;98756.03;5035941;28;20055;-85
2023/12/04 04:06:55;;;;;;;32.35;18.17;;;;;;;-0.66;80.80;98766.22;5056062;28;20059;-84
2023/12/04 04:09:20;;;;;;;34.53;19.75;;;;;;;-0.67;78.75;98773.28;5055891;28;20032;-86
2023/12/04 04:11:46;;;;;;;36.70;19.10;;;;;;;-0.84;80.01;98729.88;5050235;28;20128;-86
2023/12/04 04:14:11;;;;;;;38.63;20.38;;;;;;;-0.43;81.33;98753.84;5070822;28;20094;-85
2023/12/04 04:16:37;;;;;;;39.95;19.23;;;;;;;-0.34;81.44;98750.97;5038985;28;20032;-86
2023/12/04 04:19:02;;;;;;;38.70;19.35;;;;;;;-0.61;80.81;98769.94;5068557;28;20063;-85
2023/12/04 04:21:27;;;;;;;37.60;19.75;;;;;;;-0.53;79.55;98763.81;5053546;28;20036;-85
2023/12/04 04:23:53;;;;;;;36.30;19.70;;;;;;;-0.70;80.86;98768.41;5057054;28;20067;-86
2023/12/04 04:26:19;;;;;;;40.70;19.50;;;;;;;-0.47;80.78;98758.66;5069472;28;20036;-85
2023/12/04 04:28:44;;;;;;;35.10;18.00;;;;;;;-0.34;82.19;98765.88;5064313;28;20021;-86
2023/12/04 04:31:09;;;;;;;42.00;21.38;;;;;;;-0.48;80.21;98758.84;5070924;28;20028;-85
2023/12/04 04:33:35;;;;;;;37.03;19.08;;;;;;;-1.07;79.04;98757.94;5070995;28;20113;-85
2023/12/04 04:36:00;;;;;;;35.75;19.30;;;;;;;-1.63;81.02;98717.31;5066854;28;20029;-85
2023/12/04 04:38:26;;;;;;;35.10;18.30;;;;;;;-0.96;81.41;98747.03;5051837;28;20033;-85
2023/12/04 04:40:52;;;;;;;33.85;18.55;;;;;;;-0.57;82.23;98750.25;5052419;28;20055;-86
2023/12/04 04:43:18;;;;;;;37.70;19.65;;;;;;;-0.73;80.07;98741.72;5068536;28;20036;-85
2023/12/04 04:45:43;;;;;;;38.65;19.65;;;;;;;-1.15;82.56;98737.88;5054774;28;21978;-85
2023/12/04 04:48:09;;;;;;;37.60;20.08;;;;;;;-1.02;81.25;98739.88;5054238;28;20119;-85
2023/12/04 04:50:34;;;;;;;37.25;19.38;;;;;;;-0.80;82.76;98686.63;5036707;28;20047;-87
2023/12/04 04:53:00;;;;;;;39.47;19.50;;;;;;;-0.10;82.18;98740.19;5051932;28;20044;-85
2023/12/04 04:55:25;;;;;;;32.65;17.88;;;;;;;-0.24;81.32;98743.63;5071702;28;20036;-86
2023/12/04 04:57:51;;;;;;;33.75;18.75;;;;;;;-0.26;81.84;98735.13;5071585;28;20032;-86
2023/12/04 05:00:17;;;;;;;36.60;18.23;;;;;;;-0.46;80.90;98705.22;5038246;28;20025;-86
2023/12/04 05:02:43;;;;;;;37.75;19.52;;;;;;;-0.95;79.22;98710.19;5066524;28;20468;-86
2023/12/04 05:05:08;;;;;;;35.78;20.05;;;;;;;-0.72;81.69;98711.94;5052113;28;20040;-86
2023/12/04 05:07:33;;;;;;;35.97;20.35;;;;;;;-0.32;80.74;98714.88;5071621;28;20515;-86
2023/12/04 05:09:59;;;;;;;34.60;17.58;;;;;;;-0.04;81.62;98722.88;5067132;28;20147;-86
2023/12/04 05:12:24;;;;;;;34.78;19.00;;;;;;;-0.37;80.56;98729.56;5035692;28;20028;-86
2023/12/04 05:14:50;;;;;;;35.20;19.88;;;;;;;-0.24;80.60;98725.28;5048487;28;20036;-85
2023/12/04 05:17:15;;;;;;;40.42;20.90;;;;;;;-0.52;80.31;98710.38;5051921;28;20095;-85
2023/12/04 05:19:40;;;;;;;34.35;19.73;;;;;;;-0.95;78.53;98709.38;5065564;28;20512;-85
2023/12/04 05:22:06;;;;;;;33.35;18.38;;;;;;;-0.54;79.74;98697.47;5033267;28;20039;-87
2023/12/04 05:24:32;;;;;;;45.85;19.23;;;;;;;-0.32;77.80;98721.94;5051049;28;20025;-87
2023/12/04 05:26:58;;;;;;;35.92;19.50;;;;;;;-0.95;77.21;98725.91;5049368;28;20040;-87
2023/12/04 05:29:23;;;;;;;34.40;19.50;;;;;;;-0.91;77.09;98681.81;5073582;28;20016;-88
2023/12/04 05:31:48;;;;;;;37.45;19.75;;;;;;;-1.54;76.71;98645.63;5044372;28;20492;-87
2023/12/04 05:34:14;;;;;;;34.38;19.15;;;;;;;-0.98;77.19;98652.91;5069821;28;20055;-87
2023/12/04 05:36:39;;;;;;;34.95;19.35;;;;;;;-0.69;76.53;98701.06;5068521;28;20040;-87
2023/12/04 05:39:05;;;;;;;36.10;18.95;;;;;;;-0.39;77.85;98719.22;5037025;28;20033;-86
2023/12/04 05:41:30;;;;;;;33.30;19.08;;;;;;;-0.22;76.79;98697.06;5054069;28;20032;-86
2023/12/04 05:43:56;;;;;;;36.05;17.95;;;;;;;-0.51;75.99;98694.47;5044901;28;20029;-86
2023/12/04 05:46:22;;;;;;;35.33;17.55;;;;;;;-0.24;77.19;98696.44;5068978;28;20025;-86
2023/12/04 05:48:47;;;;;;;37.50;19.13;;;;;;;-0.81;77.53;98692.88;5048993;28;20028;-85
2023/12/04 05:51:13;;;;;;;38.17;19.05;;;;;;;-0.46;78.63;98709.66;5047028;28;20032;-86
2023/12/04 05:53:39;;;;;;;39.75;20.23;;;;;;;-1.14;77.74;98700.22;5029087;28;20035;-86
2023/12/04 05:56:06;;;;;;;35.72;18.88;;;;;;;-0.51;77.97;98686.63;5052604;28;20420;-86
2023/12/04 05:58:31;;;;;;;33.67;17.98;;;;;;;-0.20;78.49;98660.97;5047705;28;20060;-87
2023/12/04 06:00:57;;;;;;;35.42;19.45;;;;;;;-0.22;77.42;98691.81;5052508;28;20048;-87
2023/12/04 06:03:22;;;;;;;33.88;17.88;;;;;;;0.02;77.84;98685.44;5049657;28;20032;-87
2023/12/04 06:05:47;;;;;;;33.20;19.40;;;;;;;-0.29;77.32;98685.69;5053676;28;20396;-87
2023/12/04 06:08:13;;;;;;;33.70;18.48;;;;;;;-0.22;77.46;98655.09;5054202;28;20127;-87
2023/12/04 06:10:38;;;;;;;34.67;19.38;;;;;;;-0.12;77.10;98686.28;5050921;28;20040;-87
2023/12/04 06:13:03;;;;;;;33.85;18.67;;;;;;;-0.49;77.17;98655.78;5065370;28;20103;-86
2023/12/04 06:15:29;;;;;;;29.55;17.67;;;;;;;-0.40;78.26;98670.44;5047269;28;20024;-87
2023/12/04 06:17:54;;;;;;;34.65;17.83;;;;;;;-0.24;77.84;98679.91;5034452;28;20037;-87
2023/12/04 06:20:20;;;;;;;32.33;16.85;;;;;;;-0.45;79.13;98675.41;5036175;28;20046;-86
2023/12/04 06:22:45;;;;;;;32.83;19.33;;;;;;;-1.17;77.26;98639.53;5035696;28;20048;-86
2023/12/04 06:25:11;;;;;;;32.67;17.55;;;;;;;-0.90;79.47;98672.97;5053565;28;20033;-86
2023/12/04 06:27:38;;;;;;;33.90;19.05;;;;;;;-0.59;78.39;98678.84;5037996;28;20127;-86
2023/12/04 06:30:05;;;;;;;34.45;19.60;;;;;;;-0.38;77.47;98667.63;5034708;28;20021;-87
2023/12/04 06:32:31;;;;;;;31.10;17.02;;;;;;;-0.28;78.15;98655.84;5066873;28;20028;-86
2023/12/04 06:34:57;;;;;;;31.60;18.30;;;;;;;-0.23;77.87;98689.38;5049913;28;20060;-86
2023/12/04 06:37:23;;;;;;;33.08;17.13;;;;;;;-0.40;78.31;98644.22;5071363;28;20079;-87
2023/12/04 06:39:49;;;;;;;32.13;17.33;;;;;;;-0.17;78.44;98668.47;5064277;28;20024;-86
2023/12/04 06:42:15;;;;;;;34.17;17.60;;;;;;;-0.46;78.96;98638.91;5029925;28;20029;-86
2023/12/04 06:44:41;;;;;;;42.85;20.15;;;;;;;-0.31;78.66;98661.47;5048839;28;20568;-86
2023/12/04 06:47:08;;;;;;;28.52;16.88;;;;;;;0.19;77.72;98680.78;5061500;28;20369;-86
2023/12/04 06:49:34;;;;;;;29.95;17.13;;;;;;;-0.41;78.44;98641.75;5062504;28;20033;-86
2023/12/04 06:52:00;;;;;;;30.92;17.20;;;;;;;-0.79;77.51;98638.47;5066793;28;20036;-86
2023/12/04 06:54:26;;;;;;;34.13;18.58;;;;;;;-0.77;78.31;98675.78;5070436;28;20068;-86
2023/12/04 06:56:52;;;;;;;35.15;18.05;;;;;;;-0.56;78.99;98681.09;5031541;28;20644;-86
2023/12/04 06:59:18;;;;;;;32.55;17.13;;;;;;;-0.43;78.72;98668.16;5046136;28;20160;-86
2023/12/04 07:01:43;;;;;;;31.90;17.70;;;;;;;-0.85;77.43;98670.63;5065118;28;20436;-86
2023/12/04 07:04:11;;;;;;;32.42;17.63;;;;;;;-0.84;79.63;98659.16;5045041;28;20044;-86
2023/12/04 07:06:38;;;;;;;32.30;18.40;;;;;;;-0.25;79.84;98678.25;5039557;28;20082;-87
2023/12/04 07:09:04;;;;;;;33.20;16.00;;;;;;;0.01;78.55;98681.19;5070013;28;20028;-87
2023/12/04 07:11:29;;;;;;;30.27;17.13;;;;;;;-0.50;77.33;98666.47;5051643;28;20032;-87
2023/12/04 07:13:55;;;;;;;27.23;16.70;;;;;;;-0.65;78.74;98653.34;5068709;28;20109;-86
2023/12/04 07:16:20;;;;;;;28.17;15.80;;;;;;;-0.48;78.60;98675.75;5033070;28;20399;-86
2023/12/04 07:18:45;;;;;;;28.10;15.68;;;;;;;-0.70;78.07;98637.41;5023868;28;20469;-87
2023/12/04 07:21:11;;;;;;;31.88;16.23;;;;;;;-0.66;79.60;98677.13;5060227;28;20027;-87
2023/12/04 07:23:36;;;;;;;28.95;16.90;;;;;;;-0.72;77.89;98670.00;5066167;28;20035;-86
2023/12/04 07:26:02;;;;;;;29.42;17.00;;;;;;;-0.85;77.90;98663.56;5063035;28;20705;-86
2023/12/04 07:28:27;;;;;;;30.95;17.30;;;;;;;-0.45;78.30;98651.81;5064683;28;20048;-86
2023/12/04 07:30:54;;;;;;;27.08;15.50;;;;;;;-0.45;78.04;98659.66;5051859;28;20047;-86
2023/12/04 07:33:20;;;;;;;28.83;16.27;;;;;;;-0.60;78.23;98605.66;5067482;28;20097;-86
2023/12/04 07:35:45;;;;;;;33.78;17.10;;;;;;;-0.32;78.05;98670.31;5033479;28;20107;-86
2023/12/04 07:38:10;;;;;;;27.88;15.60;;;;;;;-0.54;78.82;98647.66;5074415;28;20090;-86
2023/12/04 07:40:36;;;;;;;29.58;17.73;;;;;;;-0.63;77.87;98613.91;5052700;28;20380;-86
2023/12/04 07:43:02;;;;;;;30.30;16.35;;;;;;;-0.04;78.09;98665.19;5058203;28;20028;-86
2023/12/04 07:45:27;;;;;;;26.80;15.63;;;;;;;0.15;78.04;98661.16;5048147;28;20038;-86
2023/12/04 07:47:53;;;;;;;27.90;14.27;;;;;;;0.11;77.75;98646.78;5071601;28;20494;-86
2023/12/04 07:50:19;;;;;;;27.42;17.25;;;;;;;-0.57;75.99;98660.31;5063231;28;20028;-86
2023/12/04 07:52:44;;;;;;;27.30;16.45;;;;;;;-0.33;77.56;98646.91;5057018;28;20473;-86
2023/12/04 07:55:09;;;;;;;27.00;15.40;;;;;;;-0.63;79.09;98637.47;5040008;28;20119;-87
2023/12/04 07:57:35;;;;;;;28.67;15.93;;;;;;;-0.06;78.93;98654.06;5038286;28;20037;-86
2023/12/04 08:00:00;;;;;;;25.88;14.48;;;;;;;-0.29;78.31;98653.41;5056934;28;20437;-86
2023/12/04 08:02:25;;;;;;;27.30;16.20;;;;;;;-0.51;76.65;98656.97;5073150;28;20032;-86
2023/12/04 08:04:51;;;;;;;25.63;15.60;;;;;;;-0.79;77.00;98643.72;5040340;28;20500;-86
2023/12/04 08:07:16;;;;;;;26.42;14.75;;;;;;;-0.51;78.20;98628.97;5050202;28;20056;-86
2023/12/04 08:09:42;;;;;;;28.63;16.95;;;;;;;-0.67;77.01;98642.25;5056653;28;20033;-86
2023/12/04 08:12:07;;;;;;;27.92;15.30;;;;;;;-0.65;77.97;98644.69;5087697;28;20480;-86
2023/12/04 08:14:33;;;;;;;29.08;14.55;;;;;;;-0.77;78.48;98655.66;5050080;28;20021;-86
2023/12/04 08:16:58;;;;;;;33.45;16.85;;;;;;;-0.82;78.94;98646.69;5039538;28;20116;-86
2023/12/04 08:19:24;;;;;;;28.38;16.30;;;;;;;-0.98;78.32;98637.19;5072677;28;20028;-86
2023/12/04 08:21:49;;;;;;;26.35;15.35;;;;;;;-0.93;78.82;98655.00;5085542;28;20048;-86
2023/12/04 08:24:18;;;;;;;27.55;15.82;;;;;;;-0.46;78.47;98652.78;5069233;28;20033;-86
2023/12/04 08:26:44;;;;;;;28.80;16.65;;;;;;;-1.18;75.55;98641.34;5050454;28;20036;-85
2023/12/04 08:29:09;;;;;;;30.80;16.75;;;;;;;-0.78;79.36;98640.91;5055033;28;20032;-86
2023/12/04 08:31:34;;;;;;;29.85;15.75;;;;;;;-1.08;78.67;98601.81;5041420;28;20124;-85
2023/12/04 08:34:00;;;;;;;30.52;16.27;;;;;;;-0.73;77.41;98643.00;5037803;28;20043;-86
2023/12/04 08:36:25;;;;;;;26.92;16.30;;;;;;;-0.30;78.37;98602.78;5040084;28;20036;-86
2023/12/04 08:38:51;;;;;;;28.05;16.02;;;;;;;0.08;77.58;98597.31;5073575;28;20049;-86
2023/12/04 08:41:16;;;;;;;28.25;15.93;;;;;;;-0.21;75.15;98629.69;5056435;28;20057;-86
2023/12/04 08:43:42;;;;;;;25.42;15.75;;;;;;;-0.19;77.59;98632.94;5052624;28;20028;-86
2023/12/04 08:46:12;;;;;;;26.33;15.18;;;;;;;0.37;77.12;98642.56;5053022;28;20028;-86
2023/12/04 08:48:37;;;;;;;31.05;20.35;;;;;;;-0.44;76.62;98627.22;5056067;28;20025;-86
2023/12/04 08:51:03;;;;;;;31.80;21.27;;;;;;;-0.44;75.87;98614.13;5056041;28;20077;-85
2023/12/04 08:53:28;;;;;;;28.92;16.42;;;;;;;-0.04;77.83;98638.94;5056685;28;20028;-85
2023/12/04 08:55:54;;;;;;;28.58;16.08;;;;;;;0.19;77.73;98623.84;5052054;28;20067;-86
2023/12/04 08:58:19;;;;;;;26.65;16.10;;;;;;;0.15;76.94;98613.91;5069422;28;20494;-86
2023/12/04 09:00:45;;;;;;;25.08;15.13;;;;;;;0.35;77.30;98635.91;5067843;28;20028;-86
2023/12/04 09:03:10;;;;;;;40.60;20.85;;;;;;;0.00;75.99;98620.03;5053164;28;20063;-86
2023/12/04 09:05:37;;;;;;;52.85;25.95;;;;;;;0.03;75.37;98618.03;5055364;28;20166;-86
2023/12/04 09:08:03;;;;;;;29.00;16.95;;;;;;;-0.04;77.46;98612.72;5071631;28;20040;-87
2023/12/04 09:10:28;;;;;;;28.52;17.75;;;;;;;0.27;77.46;98612.41;5072007;28;20024;-87
2023/12/04 09:12:54;;;;;;;28.10;16.80;;;;;;;-0.68;75.50;98585.63;5036210;28;20033;-86
2023/12/04 09:15:20;;;;;;;29.40;16.92;;;;;;;0.09;77.10;98615.47;5071589;28;20025;-86
2023/12/04 09:17:45;;;;;;;31.92;17.50;;;;;;;0.03;75.93;98612.78;5037328;28;20377;-86
2023/12/04 09:20:11;;;;;;;27.25;15.70;;;;;;;-0.67;75.33;98605.56;5038518;28;20032;-86
2023/12/04 09:22:38;;;;;;;30.58;16.73;;;;;;;-0.02;77.68;98606.28;5050441;28;20024;-86
2023/12/04 09:25:08;;;;;;;29.80;17.40;;;;;;;-0.10;77.39;98597.72;5038121;28;20066;-87
2023/12/04 09:27:34;;;;;;;30.85;17.00;;;;;;;0.07;76.99;98606.97;5069369;28;20024;-87
2023/12/04 09:29:59;;;;;;;32.45;16.65;;;;;;;-0.14;78.04;98599.94;5035430;28;20128;-87
2023/12/04 09:32:28;;;;;;;27.98;16.48;;;;;;;-0.12;76.55;98590.06;5038339;28;20058;-87
2023/12/04 09:34:53;;;;;;;31.48;16.50;;;;;;;-0.46;78.58;98589.88;5055137;28;20082;-86
2023/12/04 09:37:18;;;;;;;28.48;16.13;;;;;;;-0.24;78.11;98598.63;5067401;28;20028;-87
2023/12/04 09:39:44;;;;;;;32.17;16.10;;;;;;;-1.05;78.71;98562.19;5053704;28;20032;-86
2023/12/04 09:42:10;;;;;;;27.85;15.52;;;;;;;-0.88;77.36;98569.66;5040108;28;20024;-86
2023/12/04 09:44:36;;;;;;;25.17;14.82;;;;;;;-0.39;77.84;98589.94;5071739;28;20021;-87
2023/12/04 09:47:04;;;;;;;29.08;16.38;;;;;;;-0.86;75.55;98577.31;5052193;28;20115;-87
2023/12/04 09:49:31;;;;;;;26.73;16.00;;;;;;;-0.63;76.88;98583.22;5061053;28;20474;-87
2023/12/04 09:52:00;;;;;;;27.55;15.05;;;;;;;-0.35;76.96;98580.75;5067868;28;20043;-86
2023/12/04 09:54:26;;;;;;;29.52;15.43;;;;;;;-0.64;77.63;98576.38;5069439;28;20169;-86
2023/12/04 09:56:51;;;;;;;28.10;16.05;;;;;;;-0.32;77.46;98564.63;5070667;28;20145;-87
2023/12/04 09:59:17;;;;;;;28.02;15.07;;;;;;;-0.10;77.36;98561.00;5052399;28;20614;-87
2023/12/04 10:01:44;;;;;;;22.83;14.68;;;;;;;-0.11;77.11;98560.19;5045797;28;20502;-87
2023/12/04 10:04:10;;;;;;;26.90;14.60;;;;;;;-0.36;76.55;98558.94;5068991;28;20033;-87
2023/12/04 10:06:38;;;;;;;25.30;16.48;;;;;;;-0.59;74.87;98552.25;5062130;28;20036;-87
2023/12/04 10:09:04;;;;;;;25.30;14.73;;;;;;;-0.15;76.68;98537.97;5049547;28;20032;-86
2023/12/04 10:11:30;;;;;;;22.55;14.48;;;;;;;0.02;76.84;98538.53;5066836;28;20050;-87
2023/12/04 10:13:56;;;;;;;28.08;14.95;;;;;;;-0.73;73.68;98535.56;5046436;28;20039;-86
2023/12/04 10:16:33;;;;;;;24.05;14.25;;;;;;;-0.23;77.20;98532.88;5046753;28;20041;-86
2023/12/04 10:19:15;;;;;;;27.13;14.70;;;;;;;0.21;77.15;98509.03;5058415;28;20020;-87
2023/12/04 10:21:40;;;;;;;27.30;15.73;;;;;;;-0.22;75.01;98523.97;5047733;28;20439;-87
2023/12/04 10:24:06;;;;;;;25.17;13.57;;;;;;;-0.79;75.77;98531.84;5063223;28;20024;-88
2023/12/04 10:26:31;;;;;;;22.80;13.20;;;;;;;-0.54;76.34;98511.38;5067342;28;20051;-86
2023/12/04 10:29:05;;;;;;;23.77;13.88;;;;;;;-0.68;75.51;98525.34;5049563;28;20031;-87
2023/12/04 10:31:34;;;;;;;22.75;14.10;;;;;;;-0.15;77.83;98524.84;5052951;28;20108;-87
2023/12/04 10:34:00;;;;;;;24.63;13.30;;;;;;;-0.07;76.67;98516.84;5053311;28;20032;-86
2023/12/04 10:36:26;;;;;;;23.65;14.80;;;;;;;-0.22;75.07;98515.31;5037091;28;20504;-87
2023/12/04 10:39:00;;;;;;;27.50;14.65;;;;;;;-0.15;77.37;98482.91;5056589;28;20102;-87
2023/12/04 10:41:27;;;;;;;29.65;13.82;;;;;;;0.01;77.59;98502.81;5068871;28;20667;-87
2023/12/04 10:43:54;;;;;;;23.08;14.18;;;;;;;-0.06;75.95;98505.38;5068557;28;20027;-87
2023/12/04 10:46:20;;;;;;;25.42;14.18;;;;;;;-0.01;76.56;98461.03;5052953;28;20082;-87
2023/12/04 10:48:47;;;;;;;24.05;14.80;;;;;;;0.36;76.50;98493.16;5052946;28;20116;-87
2023/12/04 10:51:15;;;;;;;25.25;14.80;;;;;;;0.44;76.35;98480.69;5054104;28;20087;-87
2023/12/04 10:53:44;;;;;;;24.83;14.13;;;;;;;0.13;75.31;98474.25;5048745;28;20025;-87
2023/12/04 10:56:13;;;;;;;26.98;14.18;;;;;;;0.16;76.42;98476.47;5051966;28;20032;-87
2023/12/04 10:58:41;;;;;;;27.42;14.18;;;;;;;-0.01;77.14;98450.53;5051821;28;20028;-87
2023/12/04 11:01:08;;;;;;;24.60;13.20;;;;;;;-0.13;76.54;98417.97;5055554;28;20028;-87
2023/12/04 11:03:44;;;;;;;30.25;15.40;;;;;;;-0.07;75.67;98440.78;5059737;28;20099;-87
2023/12/04 11:06:12;;;;;;;27.55;13.85;;;;;;;-0.03;76.01;98436.00;5084009;28;20033;-87
2023/12/04 11:08:41;;;;;;;25.48;14.07;;;;;;;-0.05;76.43;98430.13;5051851;28;20036;-87
2023/12/04 11:11:15;;;;;;;23.75;14.00;;;;;;;0.19;77.06;98415.75;5066776;28;20444;-88
2023/12/04 11:13:48;;;;;;;29.52;15.25;;;;;;;-0.14;74.58;98437.34;5087596;28;20025;-87